Time;durP1;ratioP1;P1;durP2;ratioP2;P2;SDS_P1;SDS_P2;PMS_P1;PMS_P2;Temp;Humidity;BMP_temperature;BMP_pressure;BME280_temperature;BME280_humidity;BME280_pressure;Samples;Min_cycle;Max_cycle;Signal;HPM_P1;HPM_P2
2023/01/11 00:00:04;;;;;;;2.85;1.00;;;;;;;7.69;71.26;99681.63;346433;28;1645;-69
2023/01/11 00:00:17;;;;;;;2.50;0.98;;;;;;;7.62;72.22;99686.06;346899;28;1263;-70
2023/01/11 00:00:29;;;;;;;2.35;1.00;;;;;;;7.63;72.52;99679.19;347732;28;1640;-69
2023/01/11 00:00:42;;;;;;;2.83;0.90;;;;;;;7.64;72.62;99684.28;347742;28;1078;-70
2023/01/11 00:00:55;;;;;;;2.60;0.80;;;;;;;7.69;72.38;99681.63;347802;28;1329;-69
2023/01/11 00:01:08;;;;;;;2.38;0.77;;;;;;;7.70;72.51;99672.97;347817;28;1014;-69
2023/01/11 00:01:20;;;;;;;3.38;1.00;;;;;;;7.74;72.11;99672.03;347625;28;1355;-70
2023/01/11 00:01:32;;;;;;;3.63;1.00;;;;;;;7.76;71.94;99675.44;347796;28;1085;-70
2023/01/11 00:01:44;;;;;;;3.70;0.88;;;;;;;7.78;71.82;99679.69;347032;28;1663;-71
2023/01/11 00:01:56;;;;;;;2.83;0.93;;;;;;;7.80;71.47;99677.06;347340;28;1364;-70
2023/01/11 00:02:08;;;;;;;2.83;1.00;;;;;;;7.81;71.45;99673.63;346222;28;1038;-70
2023/01/11 00:02:20;;;;;;;2.40;0.90;;;;;;;7.85;71.49;99676.97;345408;28;1938;-70
2023/01/11 00:02:33;;;;;;;1.83;0.82;;;;;;;7.81;71.57;99678.78;346104;28;1881;-70
2023/01/11 00:02:45;;;;;;;2.22;0.90;;;;;;;7.84;71.16;99676.13;346233;28;1283;-69
2023/01/11 00:02:59;;;;;;;2.08;0.80;;;;;;;7.88;70.87;99675.19;346318;28;1928;-69
2023/01/11 00:03:12;;;;;;;1.90;0.82;;;;;;;7.91;71.01;99680.31;344866;28;1340;-67
2023/01/11 00:03:27;;;;;;;2.65;0.98;;;;;;;7.93;71.40;99673.34;345871;28;1298;-68
2023/01/11 00:03:39;;;;;;;2.25;1.00;;;;;;;7.90;70.74;99676.00;343635;28;1164;-67
2023/01/11 00:03:51;;;;;;;1.80;0.90;;;;;;;7.89;70.62;99676.91;343422;28;1051;-67
2023/01/11 00:04:03;;;;;;;3.40;0.90;;;;;;;7.92;70.72;99670.78;343347;28;1060;-68
2023/01/11 00:04:16;;;;;;;3.15;0.90;;;;;;;7.93;70.52;99669.91;344688;28;2107;-69
2023/01/11 00:04:29;;;;;;;2.03;0.80;;;;;;;7.97;71.11;99667.22;344597;28;1307;-70
2023/01/11 00:04:41;;;;;;;2.42;1.13;;;;;;;7.98;71.01;99676.69;344759;28;1168;-69
2023/01/11 00:04:53;;;;;;;2.55;1.20;;;;;;;7.93;71.00;99678.53;344765;28;1047;-69
2023/01/11 00:05:06;;;;;;;1.70;0.90;;;;;;;7.93;70.81;99673.34;346332;28;1339;-69
2023/01/11 00:05:18;;;;;;;1.55;0.82;;;;;;;7.93;70.51;99682.88;348478;28;1631;-70
2023/01/11 00:05:30;;;;;;;1.80;0.90;;;;;;;7.89;70.97;99678.63;347973;28;749;-70
2023/01/11 00:05:44;;;;;;;2.42;0.80;;;;;;;7.89;70.98;99670.88;347400;28;1062;-70
2023/01/11 00:05:57;;;;;;;3.25;0.90;;;;;;;7.93;70.96;99673.34;345112;28;1475;-71
2023/01/11 00:06:10;;;;;;;2.70;0.90;;;;;;;7.98;70.92;99665.47;344814;28;1058;-69
2023/01/11 00:06:22;;;;;;;2.15;0.90;;;;;;;8.00;70.84;99663.72;345335;28;1314;-70
2023/01/11 00:06:34;;;;;;;1.80;0.80;;;;;;;8.03;70.85;99662.78;343578;28;1826;-70
2023/01/11 00:06:46;;;;;;;1.42;0.80;;;;;;;8.02;71.17;99656.75;344391;28;1287;-70
2023/01/11 00:06:58;;;;;;;1.88;0.80;;;;;;;7.99;71.20;99665.47;343567;28;1034;-71
2023/01/11 00:07:10;;;;;;;2.35;0.80;;;;;;;8.02;71.06;99666.28;343373;28;1034;-70
2023/01/11 00:07:22;;;;;;;3.58;0.90;;;;;;;8.04;70.97;99669.69;342200;28;1350;-70
2023/01/11 00:07:34;;;;;;;3.55;0.93;;;;;;;8.07;71.03;99661.81;342800;28;1020;-70
2023/01/11 00:07:46;;;;;;;2.67;1.00;;;;;;;8.04;70.96;99659.31;343458;28;1575;-70
2023/01/11 00:07:58;;;;;;;1.95;1.00;;;;;;;8.00;71.19;99655.94;344012;28;1019;-70
2023/01/11 00:08:11;;;;;;;1.88;1.10;;;;;;;7.96;71.15;99657.75;344661;28;1071;-70
2023/01/11 00:08:27;;;;;;;1.90;0.93;;;;;;;7.91;71.07;99658.75;344220;28;1234;-70
2023/01/11 00:08:39;;;;;;;1.92;0.88;;;;;;;7.88;71.46;99659.66;345820;28;1099;-70
2023/01/11 00:08:51;;;;;;;1.98;0.90;;;;;;;7.92;71.32;99655.25;346085;28;1074;-69
2023/01/11 00:09:03;;;;;;;2.97;1.00;;;;;;;7.93;71.29;99651.81;346792;28;1074;-69
2023/01/11 00:09:15;;;;;;;3.05;1.00;;;;;;;7.89;71.43;99655.34;346318;28;1074;-70
2023/01/11 00:09:27;;;;;;;3.35;0.80;;;;;;;7.88;71.12;99657.06;346739;28;1153;-69
2023/01/11 00:09:39;;;;;;;2.05;0.70;;;;;;;7.90;71.46;99655.28;347502;28;1178;-70
2023/01/11 00:09:51;;;;;;;1.98;0.77;;;;;;;7.95;71.35;99652.63;345961;28;1626;-70
2023/01/11 00:10:04;;;;;;;2.17;1.00;;;;;;;7.99;71.20;99652.50;347247;28;1706;-70
2023/01/11 00:10:17;;;;;;;3.05;1.10;;;;;;;8.02;71.19;99645.56;346299;28;1381;-71
2023/01/11 00:10:29;;;;;;;4.35;1.05;;;;;;;7.91;70.43;99654.41;346455;28;773;-70
2023/01/11 00:10:41;;;;;;;4.63;1.08;;;;;;;7.83;70.27;99655.44;346268;28;1043;-69
2023/01/11 00:10:54;;;;;;;4.82;1.00;;;;;;;7.82;70.38;99652.03;346234;28;1256;-69
2023/01/11 00:11:12;;;;;;;4.18;0.88;;;;;;;7.84;70.51;99663.19;346298;28;1222;-69
2023/01/11 00:11:25;;;;;;;2.05;1.00;;;;;;;7.86;70.66;99656.25;347408;28;1474;-70
2023/01/11 00:11:37;;;;;;;2.30;1.00;;;;;;;7.86;70.62;99656.25;347534;28;1257;-70
2023/01/11 00:11:49;;;;;;;2.13;0.98;;;;;;;7.87;70.18;99652.78;347429;28;1082;-70
2023/01/11 00:12:01;;;;;;;2.88;1.00;;;;;;;7.87;70.20;99652.78;347579;28;1711;-69
2023/01/11 00:12:13;;;;;;;2.65;1.00;;;;;;;7.88;69.89;99651.03;347206;28;1987;-70
2023/01/11 00:12:25;;;;;;;2.05;0.82;;;;;;;7.85;70.24;99654.56;347627;28;1488;-69
2023/01/11 00:12:37;;;;;;;2.08;0.80;;;;;;;7.86;70.08;99656.25;347604;28;1182;-70
2023/01/11 00:12:49;;;;;;;2.88;0.85;;;;;;;7.87;70.16;99660.56;347268;28;1871;-69
2023/01/11 00:13:02;;;;;;;3.00;0.90;;;;;;;7.90;70.20;99647.53;347530;28;1079;-69
2023/01/11 00:13:15;;;;;;;2.83;0.90;;;;;;;7.93;70.33;99647.47;347657;28;1074;-70
2023/01/11 00:13:28;;;;;;;3.53;0.93;;;;;;;7.97;70.31;99649.09;346539;28;747;-70
2023/01/11 00:13:40;;;;;;;3.75;0.93;;;;;;;7.94;70.47;99651.75;346937;28;1576;-70
2023/01/11 00:13:52;;;;;;;3.08;0.80;;;;;;;8.00;70.71;99654.19;347104;28;1983;-70
2023/01/11 00:14:04;;;;;;;1.83;0.80;;;;;;;8.03;70.79;99653.31;346265;28;1107;-70
2023/01/11 00:14:16;;;;;;;2.10;0.80;;;;;;;8.04;70.43;99648.97;346260;28;1331;-70
2023/01/11 00:14:28;;;;;;;2.58;0.88;;;;;;;8.02;70.69;99651.59;346842;28;1791;-69
2023/01/11 00:14:40;;;;;;;2.80;0.80;;;;;;;8.07;70.52;99657.53;346391;28;1855;-71
2023/01/11 00:14:52;;;;;;;2.35;0.80;;;;;;;8.08;70.57;99650.59;345859;28;1293;-70
2023/01/11 00:15:04;;;;;;;2.70;0.75;;;;;;;8.13;70.43;99653.94;344689;28;1022;-68
2023/01/11 00:15:16;;;;;;;2.58;0.70;;;;;;;8.14;70.47;99653.91;344728;28;1615;-68
2023/01/11 00:15:29;;;;;;;2.17;0.63;;;;;;;8.19;70.39;99656.41;345876;28;1601;-68
2023/01/11 00:15:41;;;;;;;2.13;0.77;;;;;;;8.19;70.33;99656.41;346121;28;1053;-68
2023/01/11 00:15:53;;;;;;;2.20;0.88;;;;;;;8.21;70.56;99659.81;345310;28;1809;-67
2023/01/11 00:16:07;;;;;;;2.28;0.80;;;;;;;8.24;70.65;99656.28;344767;28;1089;-67
2023/01/11 00:16:19;;;;;;;2.05;0.80;;;;;;;8.27;70.43;99657.06;344513;28;1527;-69
2023/01/11 00:16:31;;;;;;;1.98;0.80;;;;;;;8.28;70.23;99657.91;344959;28;1111;-70
2023/01/11 00:16:43;;;;;;;2.22;0.90;;;;;;;8.28;70.22;99653.59;345598;28;1275;-69
2023/01/11 00:16:58;;;;;;;2.17;0.98;;;;;;;8.27;70.09;99657.06;345182;28;1265;-70
2023/01/11 00:17:10;;;;;;;2.28;0.98;;;;;;;8.31;69.77;99658.72;346078;28;927;-69
2023/01/11 00:17:22;;;;;;;2.38;1.00;;;;;;;8.34;70.31;99653.44;345844;28;1303;-69
2023/01/11 00:17:34;;;;;;;2.00;0.90;;;;;;;8.37;70.16;99653.38;346064;28;1204;-70
2023/01/11 00:17:46;;;;;;;2.00;0.85;;;;;;;8.39;69.84;99654.19;345342;28;1685;-69
2023/01/11 00:17:58;;;;;;;2.28;0.80;;;;;;;8.43;70.07;99654.13;346059;28;1034;-70
2023/01/11 00:18:10;;;;;;;2.95;0.80;;;;;;;8.45;69.77;99649.78;346829;28;1167;-69
2023/01/11 00:18:22;;;;;;;3.78;0.90;;;;;;;8.49;69.91;99651.41;347425;28;1359;-70
2023/01/11 00:18:35;;;;;;;3.20;0.90;;;;;;;8.50;69.95;99647.94;347370;28;1054;-70
2023/01/11 00:18:47;;;;;;;2.92;1.00;;;;;;;8.48;69.81;99644.53;346798;28;1676;-70
2023/01/11 00:18:59;;;;;;;2.88;1.00;;;;;;;8.48;69.98;99639.34;347166;28;1815;-70
2023/01/11 00:19:11;;;;;;;2.88;0.90;;;;;;;8.45;69.56;99640.28;347413;28;1306;-70
2023/01/11 00:19:23;;;;;;;2.95;0.70;;;;;;;8.44;69.66;99642.91;347210;28;1232;-69
2023/01/11 00:19:35;;;;;;;4.90;0.80;;;;;;;8.31;69.85;99642.28;347298;28;1101;-69
2023/01/11 00:19:47;;;;;;;4.18;0.90;;;;;;;8.27;70.15;99651.91;347685;28;1037;-70
2023/01/11 00:19:59;;;;;;;2.40;0.82;;;;;;;8.23;70.08;99645.09;346929;28;2037;-70
2023/01/11 00:20:14;;;;;;;2.17;0.75;;;;;;;8.08;70.66;99645.44;346408;28;841;-69
2023/01/11 00:20:26;;;;;;;1.73;0.77;;;;;;;8.04;70.76;99649.81;346224;28;1082;-70
2023/01/11 00:20:40;;;;;;;1.58;0.80;;;;;;;8.01;71.10;99647.31;345959;28;1168;-69
2023/01/11 00:20:52;;;;;;;1.58;0.70;;;;;;;7.95;71.26;99644.84;346428;28;1587;-70
2023/01/11 00:21:05;;;;;;;2.35;0.80;;;;;;;7.91;71.32;99643.22;344828;28;1844;-69
2023/01/11 00:21:16;;;;;;;2.38;0.80;;;;;;;7.94;71.67;99643.13;345509;28;1523;-67
2023/01/11 00:21:28;;;;;;;2.17;0.80;;;;;;;7.90;71.67;99642.34;345881;28;1449;-68
2023/01/11 00:21:40;;;;;;;3.25;0.80;;;;;;;7.92;72.20;99650.94;345611;28;1245;-68
2023/01/11 00:21:52;;;;;;;2.80;0.88;;;;;;;7.88;72.02;99643.28;344821;28;1066;-68
2023/01/11 00:22:04;;;;;;;3.75;1.00;;;;;;;7.88;71.64;99646.72;345533;28;1690;-68
2023/01/11 00:22:18;;;;;;;2.80;0.88;;;;;;;7.82;71.53;99639.06;347488;28;1551;-71
2023/01/11 00:22:30;;;;;;;2.28;0.77;;;;;;;7.87;71.82;99644.16;346639;28;1623;-70
2023/01/11 00:22:42;;;;;;;2.25;0.70;;;;;;;7.91;71.64;99649.25;345986;28;1175;-71
2023/01/11 00:22:54;;;;;;;2.22;0.70;;;;;;;7.95;71.69;99644.84;346091;28;1030;-70
2023/01/11 00:23:07;;;;;;;2.20;0.80;;;;;;;7.94;71.28;99641.41;345666;28;1062;-70
2023/01/11 00:23:19;;;;;;;4.25;0.95;;;;;;;7.93;70.99;99642.31;347163;28;1707;-70
2023/01/11 00:23:32;;;;;;;4.30;0.95;;;;;;;7.91;70.65;99638.91;347279;28;1689;-69
2023/01/11 00:23:48;;;;;;;3.35;0.90;;;;;;;7.91;70.22;99638.91;346987;28;1062;-69
2023/01/11 00:24:00;;;;;;;1.75;0.77;;;;;;;7.89;70.51;99635.47;347566;28;926;-69
2023/01/11 00:24:12;;;;;;;1.02;0.73;;;;;;;7.90;70.40;99639.75;347740;28;1184;-69
2023/01/11 00:24:24;;;;;;;1.35;0.77;;;;;;;7.92;70.62;99638.00;346474;28;1747;-69
2023/01/11 00:24:36;;;;;;;3.55;0.90;;;;;;;7.98;70.43;99634.41;346257;28;1117;-69
2023/01/11 00:24:48;;;;;;;5.78;1.00;;;;;;;7.98;70.65;99634.41;346255;28;1089;-69
2023/01/11 00:24:59;;;;;;;4.80;0.90;;;;;;;8.03;70.70;99639.47;346097;28;1733;-68
2023/01/11 00:25:14;;;;;;;3.35;0.90;;;;;;;8.02;70.89;99640.38;346188;28;1050;-68
2023/01/11 00:25:26;;;;;;;2.85;0.90;;;;;;;8.05;70.73;99640.31;345967;28;1147;-67
2023/01/11 00:25:38;;;;;;;2.42;0.90;;;;;;;8.07;70.46;99643.72;346843;28;1643;-67
2023/01/11 00:25:50;;;;;;;2.45;0.85;;;;;;;8.09;70.46;99637.63;346823;28;1972;-68
2023/01/11 00:26:04;;;;;;;3.92;0.77;;;;;;;8.11;70.67;99645.34;346712;28;1706;-67
2023/01/11 00:26:21;;;;;;;4.18;0.80;;;;;;;8.11;71.08;99640.16;346768;28;1410;-70
2023/01/11 00:26:35;;;;;;;3.55;0.93;;;;;;;8.16;71.00;99643.50;346868;28;2236;-70
2023/01/11 00:26:48;;;;;;;3.53;0.90;;;;;;;8.20;70.87;99640.81;345498;28;3653;-69
2023/01/11 00:27:00;;;;;;;2.33;1.00;;;;;;;8.22;70.72;99643.38;347287;28;3782;-69
2023/01/11 00:27:12;;;;;;;1.70;0.93;;;;;;;8.26;71.07;99642.41;346928;28;1159;-69
2023/01/11 00:27:24;;;;;;;1.45;0.80;;;;;;;8.29;70.65;99638.88;347042;28;2883;-67
2023/01/11 00:27:36;;;;;;;2.17;0.70;;;;;;;8.32;70.63;99631.91;346811;28;1487;-69
2023/01/11 00:27:48;;;;;;;3.55;0.90;;;;;;;8.33;70.67;99638.81;347437;28;1072;-68
2023/01/11 00:28:00;;;;;;;3.92;1.00;;;;;;;8.36;70.55;99638.72;346982;28;2170;-69
2023/01/11 00:28:12;;;;;;;3.00;0.93;;;;;;;8.39;70.81;99641.25;347424;28;1015;-69
2023/01/11 00:28:24;;;;;;;2.58;0.90;;;;;;;8.40;70.62;99627.38;347272;28;1278;-69
2023/01/11 00:28:36;;;;;;;2.45;0.80;;;;;;;8.42;70.71;99636.91;346219;28;1689;-70
2023/01/11 00:28:48;;;;;;;1.90;0.80;;;;;;;8.42;70.51;99637.75;347111;28;2495;-69
2023/01/11 00:29:00;;;;;;;2.30;0.80;;;;;;;8.44;70.49;99632.53;347487;28;1011;-69
2023/01/11 00:29:12;;;;;;;2.17;0.80;;;;;;;8.47;70.30;99640.22;347183;28;1150;-69
2023/01/11 00:29:24;;;;;;;1.60;0.80;;;;;;;8.49;70.37;99641.91;347529;28;1264;-69
2023/01/11 00:29:37;;;;;;;1.40;0.70;;;;;;;8.48;70.00;99635.00;347225;28;1678;-70
2023/01/11 00:29:48;;;;;;;1.98;0.80;;;;;;;8.52;69.97;99640.97;346971;28;1722;-71
2023/01/11 00:30:01;;;;;;;2.05;0.80;;;;;;;8.52;69.84;99635.81;344383;28;2286;-70
2023/01/11 00:30:13;;;;;;;2.72;0.80;;;;;;;8.53;69.93;99634.91;345118;28;1087;-69
2023/01/11 00:30:25;;;;;;;3.47;0.82;;;;;;;8.52;70.05;99636.66;346032;28;1371;-69
2023/01/11 00:30:37;;;;;;;3.88;0.82;;;;;;;8.51;69.73;99641.84;344524;28;1640;-70
2023/01/11 00:30:49;;;;;;;2.80;0.80;;;;;;;8.54;69.96;99639.19;345829;28;1713;-69
2023/01/11 00:31:02;;;;;;;1.13;0.70;;;;;;;8.54;70.07;99640.03;345075;28;1785;-70
2023/01/11 00:31:15;;;;;;;1.88;0.73;;;;;;;8.53;70.60;99637.47;345729;28;1327;-70
2023/01/11 00:31:27;;;;;;;2.63;0.80;;;;;;;8.53;71.08;99642.66;344599;28;1478;-70
2023/01/11 00:31:39;;;;;;;2.30;0.80;;;;;;;8.51;71.20;99639.25;344223;28;1167;-70
2023/01/11 00:31:52;;;;;;;2.08;0.73;;;;;;;8.43;71.06;99641.19;345694;28;1613;-70
2023/01/11 00:32:04;;;;;;;2.13;0.70;;;;;;;8.44;70.88;99638.56;346798;28;1282;-69
2023/01/11 00:32:16;;;;;;;1.55;0.70;;;;;;;8.47;70.88;99637.63;346061;28;2407;-70
2023/01/11 00:32:28;;;;;;;1.30;0.70;;;;;;;8.40;70.94;99637.75;347053;28;1723;-69
2023/01/11 00:32:43;;;;;;;1.27;0.70;;;;;;;8.37;71.34;99637.84;347720;28;1329;-70
2023/01/11 00:32:57;;;;;;;1.58;0.70;;;;;;;8.35;71.38;99636.16;346849;28;1630;-70
2023/01/11 00:33:09;;;;;;;3.08;0.70;;;;;;;8.29;71.39;99637.19;347708;28;990;-71
2023/01/11 00:33:21;;;;;;;3.45;0.93;;;;;;;8.26;71.81;99638.97;347316;28;1528;-67
2023/01/11 00:33:34;;;;;;;3.70;1.00;;;;;;;8.17;71.71;99640.91;347593;28;1065;-67
2023/01/11 00:33:46;;;;;;;3.25;0.93;;;;;;;8.11;71.92;99643.63;347723;28;1274;-67
2023/01/11 00:33:58;;;;;;;2.78;0.93;;;;;;;8.09;72.03;99641.94;346656;28;1914;-69
2023/01/11 00:34:10;;;;;;;2.13;0.88;;;;;;;8.06;71.93;99647.19;346329;28;1403;-69
2023/01/11 00:34:22;;;;;;;2.63;0.93;;;;;;;8.05;71.81;99640.31;347721;28;1258;-69
2023/01/11 00:34:34;;;;;;;2.88;0.80;;;;;;;7.99;72.08;99639.56;347572;28;1037;-69
2023/01/11 00:34:45;;;;;;;2.25;0.80;;;;;;;7.87;71.97;99642.44;347486;28;1054;-69
2023/01/11 00:34:57;;;;;;;2.85;0.77;;;;;;;7.86;72.54;99639.88;347500;28;1177;-70
2023/01/11 00:35:10;;;;;;;3.90;0.80;;;;;;;7.94;72.08;99638.81;347426;28;1682;-70
2023/01/11 00:35:22;;;;;;;2.70;0.88;;;;;;;7.89;72.02;99634.66;347490;28;1322;-69
2023/01/11 00:35:34;;;;;;;2.45;0.93;;;;;;;7.93;71.87;99636.28;347732;28;777;-68
2023/01/11 00:35:46;;;;;;;1.98;0.90;;;;;;;7.97;72.11;99637.91;347364;28;1031;-67
2023/01/11 00:35:58;;;;;;;2.00;0.90;;;;;;;8.03;72.23;99636.91;344356;28;2209;-68
2023/01/11 00:36:10;;;;;;;2.72;0.82;;;;;;;8.07;72.05;99638.53;345425;28;1722;-70
2023/01/11 00:36:22;;;;;;;2.65;0.80;;;;;;;8.09;72.09;99634.16;345895;28;1559;-69
2023/01/11 00:36:34;;;;;;;1.73;0.70;;;;;;;8.07;71.98;99633.34;346048;28;1239;-69
2023/01/11 00:36:46;;;;;;;2.28;0.80;;;;;;;8.10;71.78;99635.88;346088;28;1324;-69
2023/01/11 00:36:58;;;;;;;1.92;0.80;;;;;;;8.14;71.79;99633.19;346024;28;1167;-69
2023/01/11 00:37:10;;;;;;;1.98;0.88;;;;;;;8.11;71.33;99629.81;346004;28;1098;-67
2023/01/11 00:37:21;;;;;;;2.10;0.80;;;;;;;8.12;71.14;99631.53;345391;28;1684;-67
2023/01/11 00:37:34;;;;;;;2.00;0.75;;;;;;;8.15;71.43;99632.31;345913;28;1080;-68
2023/01/11 00:37:45;;;;;;;2.30;0.80;;;;;;;8.17;70.95;99633.13;345599;28;1381;-67
2023/01/11 00:37:58;;;;;;;1.85;0.90;;;;;;;8.19;71.03;99633.94;345893;28;1197;-67
2023/01/11 00:38:42;;;;;;;2.10;0.85;;;;;;;8.22;70.96;99625.25;346120;28;1027;-68
2023/01/11 00:38:52;;;;;;;2.33;0.73;;;;;;;8.29;70.83;99631.13;346047;28;1188;-67
2023/01/11 00:39:04;;;;;;;3.53;0.90;;;;;;;8.34;70.79;99632.72;346150;28;1070;-67
2023/01/11 00:39:16;;;;;;;2.90;0.90;;;;;;;8.37;70.79;99632.66;346449;28;1851;-68
2023/01/11 00:39:28;;;;;;;2.95;0.80;;;;;;;8.39;70.65;99625.72;347004;28;1613;-68
2023/01/11 00:39:40;;;;;;;3.22;0.90;;;;;;;8.37;70.61;99630.06;347450;28;1093;-70
2023/01/11 00:39:52;;;;;;;4.20;1.00;;;;;;;8.40;70.31;99632.56;347354;28;1249;-69
2023/01/11 00:40:05;;;;;;;3.97;1.10;;;;;;;8.36;70.54;99625.75;346049;28;1104;-70
2023/01/11 00:40:17;;;;;;;5.25;1.20;;;;;;;8.34;70.63;99624.94;346101;28;1353;-70
2023/01/11 00:40:29;;;;;;;3.80;0.88;;;;;;;8.35;70.57;99624.09;344900;28;934;-70
2023/01/11 00:40:41;;;;;;;3.53;0.80;;;;;;;8.38;70.75;99629.16;343956;28;1608;-69
2023/01/11 00:40:53;;;;;;;2.08;0.70;;;;;;;8.42;70.66;99623.97;344473;28;1346;-69
2023/01/11 00:47:59;;;;;;;2.45;0.80;;;;;;;8.86;69.19;99598.66;346339;28;1793;-70
2023/01/11 00:48:11;;;;;;;2.47;1.10;;;;;;;8.80;69.38;99591.91;346108;28;1682;-70
2023/01/11 00:48:23;;;;;;;2.80;1.17;;;;;;;8.77;69.53;99595.44;347268;28;1252;-69
2023/01/11 00:48:35;;;;;;;2.72;0.93;;;;;;;8.75;69.44;99597.22;346270;28;1230;-70
2023/01/11 00:48:47;;;;;;;2.38;0.90;;;;;;;8.79;69.55;99593.66;346319;28;1043;-69
2023/01/11 00:48:58;;;;;;;2.10;0.77;;;;;;;8.82;69.72;99591.88;346506;28;1870;-69
2023/01/11 00:49:10;;;;;;;2.92;0.80;;;;;;;8.83;69.49;99594.38;346536;28;1578;-69
2023/01/11 00:49:23;;;;;;;2.70;0.73;;;;;;;8.85;69.55;99592.59;347208;28;1910;-70
2023/01/11 00:49:35;;;;;;;3.92;0.95;;;;;;;8.86;69.61;99594.31;346785;28;1786;-71
2023/01/11 00:49:47;;;;;;;3.90;1.25;;;;;;;8.90;69.68;99595.09;347208;28;1148;-69
2023/01/11 00:49:59;;;;;;;3.40;1.20;;;;;;;8.91;69.46;99594.19;347516;28;1244;-69
2023/01/11 00:50:11;;;;;;;3.65;0.98;;;;;;;8.92;69.27;99593.31;346197;28;1112;-69
2023/01/11 00:50:24;;;;;;;3.70;0.80;;;;;;;8.94;69.72;99589.78;346503;28;1856;-69
2023/01/11 00:50:39;;;;;;;2.97;0.80;;;;;;;8.97;69.44;99591.44;347708;28;1066;-68
2023/01/11 00:50:54;;;;;;;2.88;0.90;;;;;;;8.97;69.46;99591.44;347599;28;1279;-68
2023/01/11 00:51:06;;;;;;;2.10;0.82;;;;;;;8.98;69.69;99590.56;346957;28;1883;-68
2023/01/11 00:51:18;;;;;;;1.50;0.70;;;;;;;8.95;69.15;99593.22;347080;28;1074;-68
2023/01/11 00:51:30;;;;;;;1.30;0.60;;;;;;;8.94;69.08;99594.13;346693;28;1693;-68
2023/01/11 00:51:42;;;;;;;2.08;0.77;;;;;;;8.86;69.02;99590.91;346914;28;1159;-70
2023/01/11 00:51:54;;;;;;;3.03;0.90;;;;;;;8.79;69.13;99598.84;345871;28;1109;-70
2023/01/11 00:52:08;;;;;;;3.47;0.90;;;;;;;8.84;69.29;99595.25;346237;28;1004;-70
2023/01/11 00:52:20;;;;;;;3.38;0.77;;;;;;;8.88;69.43;99594.28;346414;28;1273;-70
2023/01/11 00:52:33;;;;;;;3.40;0.70;;;;;;;8.86;69.07;99589.16;346965;28;1685;-70
2023/01/11 00:52:44;;;;;;;2.88;0.60;;;;;;;8.88;69.15;99589.09;346671;28;1881;-69
2023/01/11 00:52:58;;;;;;;2.85;0.73;;;;;;;8.85;69.07;99590.03;346241;28;1110;-69
2023/01/11 00:53:10;;;;;;;2.55;0.70;;;;;;;8.84;69.26;99590.09;345638;28;1688;-70
2023/01/11 00:53:22;;;;;;;2.38;0.75;;;;;;;8.80;69.33;99586.72;345768;28;1264;-70
2023/01/11 00:53:34;;;;;;;2.05;0.85;;;;;;;8.79;69.43;99591.06;345683;28;1500;-70
2023/01/11 00:53:47;;;;;;;1.98;0.88;;;;;;;8.79;69.66;99588.47;346782;28;1804;-70
2023/01/11 00:53:59;;;;;;;2.00;0.75;;;;;;;8.78;69.54;99597.13;345957;28;1179;-70
2023/01/11 00:54:11;;;;;;;1.88;0.80;;;;;;;8.82;69.64;99591.88;345984;28;1245;-69
2023/01/11 00:54:23;;;;;;;1.95;0.80;;;;;;;8.83;69.71;99589.22;346996;28;1806;-69
2023/01/11 00:54:36;;;;;;;2.00;0.80;;;;;;;8.86;69.65;99581.38;347319;28;1086;-69
2023/01/11 00:54:48;;;;;;;1.58;0.75;;;;;;;8.90;69.61;99590.75;346722;28;1415;-68
2023/01/11 00:55:00;;;;;;;1.30;0.70;;;;;;;8.92;69.49;99588.13;344963;28;1037;-68
2023/01/11 00:55:12;;;;;;;1.97;0.70;;;;;;;8.93;69.42;99589.81;345736;28;1031;-67
2023/01/11 00:55:25;;;;;;;2.03;0.80;;;;;;;8.91;69.38;99586.41;344857;28;1376;-68
2023/01/11 00:55:37;;;;;;;2.75;0.80;;;;;;;8.90;69.21;99582.97;344383;28;1110;-70
2023/01/11 00:55:49;;;;;;;1.77;0.80;;;;;;;8.92;69.49;99588.13;343577;28;1700;-71
2023/01/11 00:56:01;;;;;;;1.35;0.77;;;;;;;8.91;69.30;99587.25;344173;28;1927;-70
2023/01/11 00:56:13;;;;;;;1.48;0.70;;;;;;;8.92;68.94;99583.78;343946;28;1103;-69
2023/01/11 00:56:25;;;;;;;1.58;0.65;;;;;;;8.93;68.78;99590.69;343999;28;1550;-69
2023/01/11 00:56:37;;;;;;;2.50;0.80;;;;;;;8.93;69.07;99589.81;344729;28;1089;-70
2023/01/11 00:56:49;;;;;;;1.98;0.80;;;;;;;8.92;69.00;99588.13;344562;28;1096;-70
2023/01/11 00:57:02;;;;;;;1.08;0.60;;;;;;;8.93;68.89;99587.22;344832;28;1647;-70
2023/01/11 00:57:13;;;;;;;0.90;0.60;;;;;;;8.95;69.13;99588.03;346442;28;1284;-69
2023/01/11 00:57:25;;;;;;;0.80;0.60;;;;;;;8.96;69.12;99589.75;346693;28;1828;-70
2023/01/11 00:57:37;;;;;;;0.80;0.60;;;;;;;8.97;69.13;99583.66;347218;28;1033;-70
2023/01/11 00:57:50;;;;;;;1.15;0.65;;;;;;;8.97;69.26;99591.44;347089;28;1580;-70
2023/01/11 00:58:02;;;;;;;1.50;0.70;;;;;;;8.99;69.20;99585.34;346537;28;1648;-70
2023/01/11 00:58:15;;;;;;;1.50;0.75;;;;;;;9.02;69.45;99589.59;347304;28;1735;-69
2023/01/11 00:58:27;;;;;;;2.45;0.68;;;;;;;9.07;69.29;99592.88;346263;28;1670;-70
2023/01/11 00:58:38;;;;;;;2.45;0.60;;;;;;;9.08;69.10;99594.59;347964;28;1285;-69
2023/01/11 00:58:50;;;;;;;1.55;0.68;;;;;;;9.03;68.92;99591.28;347178;28;1641;-70
2023/01/11 00:59:03;;;;;;;1.80;0.80;;;;;;;8.95;69.06;99588.03;347386;28;1809;-70
2023/01/11 00:59:15;;;;;;;1.38;0.70;;;;;;;8.86;69.20;99589.16;347905;28;1114;-71
2023/01/11 00:59:27;;;;;;;2.25;0.70;;;;;;;8.89;69.12;99586.44;346241;28;1094;-70
2023/01/11 00:59:39;;;;;;;3.55;0.70;;;;;;;8.89;69.51;99588.19;346323;28;1101;-70
2023/01/11 00:59:51;;;;;;;2.92;0.70;;;;;;;8.91;69.47;99587.25;346382;28;1568;-70
2023/01/11 01:00:05;;;;;;;2.05;0.77;;;;;;;8.93;69.45;99584.63;346747;28;1676;-70
2023/01/11 01:00:19;;;;;;;1.85;0.70;;;;;;;8.93;69.37;99587.22;347632;28;1888;-69
2023/01/11 01:00:31;;;;;;;2.08;0.60;;;;;;;8.88;69.34;99591.69;346255;28;1041;-67
2023/01/11 01:00:43;;;;;;;2.45;0.60;;;;;;;8.87;69.19;99589.97;345730;28;1782;-68
2023/01/11 01:00:55;;;;;;;1.90;0.60;;;;;;;8.90;69.54;99585.56;346228;28;1035;-67
2023/01/11 01:01:07;;;;;;;1.58;0.57;;;;;;;8.93;69.65;99584.63;346441;28;1082;-67
2023/01/11 01:01:19;;;;;;;1.80;0.68;;;;;;;8.91;69.69;99586.41;346307;28;1414;-69
2023/01/11 01:01:31;;;;;;;1.52;0.60;;;;;;;8.94;69.74;99588.94;347010;28;1050;-69
2023/01/11 01:01:43;;;;;;;1.83;0.70;;;;;;;8.96;69.78;99588.00;346348;28;1226;-70
2023/01/11 01:01:55;;;;;;;3.00;0.80;;;;;;;8.98;69.77;99588.81;345692;28;2207;-70
2023/01/11 01:02:08;;;;;;;4.00;0.80;;;;;;;9.00;69.56;99583.59;344140;28;2921;-70
2023/01/11 01:02:21;;;;;;;3.17;0.70;;;;;;;8.99;69.47;99584.47;346016;28;3280;-67
2023/01/11 01:02:33;;;;;;;2.85;0.70;;;;;;;8.99;69.17;99584.47;345134;28;1156;-67
2023/01/11 01:02:45;;;;;;;2.58;0.70;;;;;;;8.99;69.31;99580.16;345024;28;3754;-68
2023/01/11 01:02:58;;;;;;;2.08;0.90;;;;;;;8.98;69.33;99587.97;346309;28;1046;-68
2023/01/11 01:03:10;;;;;;;3.10;1.00;;;;;;;8.97;69.01;99586.25;346328;28;1031;-70
2023/01/11 01:03:22;;;;;;;2.28;0.85;;;;;;;8.94;69.34;99581.16;344804;28;1273;-69
2023/01/11 01:03:34;;;;;;;2.40;0.73;;;;;;;8.95;69.46;99582.84;345577;28;1039;-70
2023/01/11 01:03:46;;;;;;;2.05;0.70;;;;;;;8.99;69.48;99584.47;345197;28;1087;-70
2023/01/11 01:04:01;;;;;;;2.30;0.70;;;;;;;9.00;69.48;99575.81;345199;28;1122;-70
2023/01/11 01:04:13;;;;;;;2.03;0.70;;;;;;;9.03;69.39;99586.09;344719;28;1054;-70
2023/01/11 01:04:25;;;;;;;3.03;0.70;;;;;;;9.05;69.50;99584.28;346182;28;1384;-70
2023/01/11 01:04:38;;;;;;;3.30;0.70;;;;;;;9.04;69.44;99581.78;346015;28;1075;-71
2023/01/11 01:04:50;;;;;;;2.78;0.75;;;;;;;9.02;69.42;99584.41;346106;28;1308;-70
2023/01/11 01:05:02;;;;;;;2.30;0.70;;;;;;;9.02;69.40;99581.81;346185;28;1403;-69
2023/01/11 01:05:14;;;;;;;1.90;0.60;;;;;;;9.02;69.46;99584.41;346054;28;1046;-71
2023/01/11 01:05:27;;;;;;;2.40;0.70;;;;;;;9.03;69.35;99580.91;346677;28;1609;-70
2023/01/11 01:05:38;;;;;;;1.65;0.70;;;;;;;9.05;69.26;99578.28;347149;28;1499;-70
2023/01/11 01:05:53;;;;;;;2.15;0.77;;;;;;;9.06;69.25;99583.41;345622;28;1187;-70
2023/01/11 01:06:05;;;;;;;1.80;0.80;;;;;;;9.09;69.09;99580.72;347569;28;1749;-70
2023/01/11 01:06:17;;;;;;;1.63;0.80;;;;;;;9.12;69.28;99583.25;347530;28;1320;-70
2023/01/11 01:06:30;;;;;;;1.52;0.60;;;;;;;9.13;69.12;99582.34;347697;28;1081;-70
2023/01/11 01:06:42;;;;;;;2.25;0.70;;;;;;;9.15;69.06;99577.97;347519;28;1382;-70
2023/01/11 01:06:54;;;;;;;3.80;0.80;;;;;;;9.13;69.01;99586.69;347388;28;1567;-70
2023/01/11 01:07:06;;;;;;;3.67;0.85;;;;;;;9.15;69.07;99579.72;346885;28;1570;-69
2023/01/11 01:07:18;;;;;;;1.55;0.60;;;;;;;9.13;69.03;99584.94;346256;28;1917;-70
2023/01/11 01:07:30;;;;;;;0.95;0.60;;;;;;;9.12;69.14;99580.66;346237;28;1036;-69
2023/01/11 01:07:42;;;;;;;1.40;0.70;;;;;;;9.10;69.29;99579.84;345937;28;1208;-69